createdAt,value
2019-04-11T00:00:57.645Z,1016.30
2019-04-11T00:01:58.656Z,1016.28
2019-04-11T00:03:00.831Z,1016.28
2019-04-11T00:04:01.908Z,1016.31
2019-04-11T00:05:02.728Z,1016.28
2019-04-11T00:06:04.108Z,1016.25
2019-04-11T00:07:05.879Z,1016.26
2019-04-11T00:08:07.905Z,1016.25
2019-04-11T00:09:08.235Z,1016.26
2019-04-11T00:10:10.228Z,1016.28
2019-04-11T00:11:11.538Z,1016.26
2019-04-11T00:12:12.441Z,1016.25
2019-04-11T00:13:19.819Z,1016.20
2019-04-11T00:14:15.874Z,1016.25
2019-04-11T00:15:16.295Z,1016.26
2019-04-11T00:16:17.677Z,1016.26
2019-04-11T00:17:19.586Z,1016.28
2019-04-11T00:18:20.775Z,1016.25
2019-04-11T00:19:21.761Z,1016.28
2019-04-11T00:20:24.237Z,1016.30
2019-04-11T00:21:24.612Z,1016.30
2019-04-11T00:22:25.832Z,1016.30
2019-04-11T00:23:27.212Z,1016.29
2019-04-11T00:24:29.208Z,1016.28
2019-04-11T00:25:29.932Z,1016.28
2019-04-11T00:26:31.310Z,1016.32
2019-04-11T00:27:32.961Z,1016.28
2019-04-11T00:28:34.099Z,1016.31
2019-04-11T00:29:36.473Z,1016.31
2019-04-11T00:30:36.712Z,1016.32
2019-04-11T00:31:39.033Z,1016.38
2019-04-11T00:32:39.438Z,1016.33
2019-04-11T00:33:40.820Z,1016.37
2019-04-11T00:34:42.723Z,1016.40
2019-04-11T00:35:43.935Z,1016.37
2019-04-11T00:36:44.884Z,1016.37
2019-04-11T00:37:47.401Z,1016.38
2019-04-11T00:38:47.840Z,1016.40
2019-04-11T00:39:49.898Z,1016.41
2019-04-11T00:40:51.239Z,1016.43
2019-04-11T00:41:52.325Z,1016.38
2019-04-11T00:42:52.985Z,1016.39
2019-04-11T00:43:54.618Z,1016.39
2019-04-11T00:44:57.026Z,1016.43
2019-04-11T00:45:58.100Z,1016.43
2019-04-11T00:46:58.514Z,1016.46
2019-04-11T00:47:59.743Z,1016.45
2019-04-11T00:49:01.886Z,1016.44
2019-04-11T00:50:04.062Z,1016.46
2019-04-11T00:51:03.811Z,1016.41
2019-04-11T00:52:05.196Z,1016.43
2019-04-11T00:53:06.598Z,1016.45
2019-04-11T00:54:08.708Z,1016.42
2019-04-11T00:55:09.301Z,1016.44
2019-04-11T00:56:10.889Z,1016.42
2019-04-11T00:57:12.709Z,1016.42
2019-04-11T00:58:13.747Z,1016.44
2019-04-11T00:59:14.700Z,1016.45
2019-04-11T01:00:16.081Z,1016.47
2019-04-11T01:01:17.697Z,1016.40
2019-04-11T01:02:18.827Z,1016.45
2019-04-11T01:03:20.237Z,1016.44
2019-04-11T01:04:21.590Z,1016.44
2019-04-11T01:05:23.538Z,1016.46
2019-04-11T01:06:24.325Z,1016.43
2019-04-11T01:07:26.791Z,1016.46
2019-04-11T01:08:27.377Z,1016.45
2019-04-11T01:09:28.460Z,1016.48
2019-04-11T01:10:29.977Z,1016.48
2019-04-11T01:11:32.013Z,1016.50
2019-04-11T01:12:32.421Z,1016.46
2019-04-11T01:13:42.565Z,1016.45
2019-04-11T01:14:37.105Z,1016.52
2019-04-11T01:15:36.505Z,1016.46
2019-04-11T01:16:38.846Z,1016.45
2019-04-11T01:17:39.281Z,1016.47
2019-04-11T01:18:40.614Z,1016.48
2019-04-11T01:19:42.632Z,1016.44
2019-04-11T01:20:43.866Z,1016.47
2019-04-11T01:21:44.683Z,1016.48
2019-04-11T01:22:46.601Z,1016.50
2019-04-11T01:23:47.401Z,1016.55
2019-04-11T01:24:48.778Z,1016.52
2019-04-11T01:25:50.174Z,1016.54
2019-04-11T01:26:51.791Z,1016.49
2019-04-11T01:27:52.894Z,1016.51
2019-04-11T01:28:55.328Z,1016.54
2019-04-11T01:29:55.703Z,1016.50
2019-04-11T01:30:57.525Z,1016.48
2019-04-11T01:31:58.304Z,1016.49
2019-04-11T01:32:59.686Z,1016.47
2019-04-11T01:34:02.274Z,1016.49
2019-04-11T01:35:02.405Z,1016.45
2019-04-11T01:36:04.770Z,1016.47
2019-04-11T01:37:05.135Z,1016.48
2019-04-11T01:38:06.502Z,1016.46
2019-04-11T01:39:08.491Z,1016.46
2019-04-11T01:40:09.859Z,1016.46
2019-04-11T01:41:10.572Z,1016.44
2019-04-11T01:42:13.139Z,1016.43
2019-04-11T01:43:13.557Z,1016.45
2019-04-11T01:44:14.648Z,1016.46
2019-04-11T01:45:16.957Z,1016.44
2019-04-11T01:46:18.051Z,1016.48
2019-04-11T01:47:18.710Z,1016.49
2019-04-11T01:48:20.095Z,1016.45
2019-04-11T01:49:21.903Z,1016.43
2019-04-11T01:50:23.051Z,1016.46
2019-04-11T01:51:25.356Z,1016.46
2019-04-11T01:52:26.527Z,1016.44
2019-04-11T01:53:26.888Z,1016.49
2019-04-11T01:54:28.238Z,1016.45
2019-04-11T01:55:29.616Z,1016.51
2019-04-11T01:56:31.455Z,1016.48
2019-04-11T01:57:32.335Z,1016.53
2019-04-11T01:58:33.722Z,1016.53
2019-04-11T01:59:35.438Z,1016.50
2019-04-11T02:00:36.518Z,1016.58
2019-04-11T02:01:38.977Z,1016.58
2019-04-11T02:02:39.151Z,1016.61
2019-04-11T02:03:41.416Z,1016.62
2019-04-11T02:04:41.868Z,1016.62
2019-04-11T02:05:43.915Z,1016.61
2019-04-11T02:06:45.833Z,1016.60
2019-04-11T02:07:46.962Z,1016.60
2019-04-11T02:08:47.981Z,1016.64
2019-04-11T02:09:50.413Z,1016.65
2019-04-11T02:10:50.861Z,1016.66
2019-04-11T02:11:52.088Z,1016.64
2019-04-11T02:12:53.428Z,1016.66
2019-04-11T02:14:05.085Z,1016.65
2019-04-11T02:14:56.152Z,1016.66
2019-04-11T02:15:58.394Z,1016.69
2019-04-11T02:16:59.292Z,1016.67
2019-04-11T02:18:01.243Z,1016.64
2019-04-11T02:19:01.647Z,1016.61
2019-04-11T02:20:02.907Z,1016.61
2019-04-11T02:21:05.234Z,1016.65
2019-04-11T02:22:06.489Z,1016.61
2019-04-11T02:23:07.006Z,1016.68
2019-04-11T02:24:08.400Z,1016.65
2019-04-11T02:25:09.779Z,1016.66
2019-04-11T02:26:11.481Z,1016.71
2019-04-11T02:27:12.619Z,1016.67
2019-04-11T02:28:14.715Z,1016.67
2019-04-11T02:29:15.202Z,1016.69
2019-04-11T02:30:18.329Z,1016.67
2019-04-11T02:31:19.563Z,1016.65
2019-04-11T02:32:20.838Z,1016.66
2019-04-11T02:33:21.758Z,1016.70
2019-04-11T02:34:23.379Z,1016.71
2019-04-11T02:35:24.247Z,1016.75
2019-04-11T02:36:25.024Z,1016.77
2019-04-11T02:37:26.325Z,1016.77
2019-04-11T02:38:28.363Z,1016.79
2019-04-11T02:39:30.741Z,1016.78
2019-04-11T02:40:30.634Z,1016.80
2019-04-11T02:41:32.024Z,1016.82
2019-04-11T02:42:32.981Z,1016.82
2019-04-11T02:43:34.213Z,1016.85
2019-04-11T02:44:52.277Z,1016.84
2019-04-11T02:45:49.168Z,1016.84
2019-04-11T02:46:47.889Z,1016.81
2019-04-11T02:47:41.111Z,1016.83
2019-04-11T02:48:40.893Z,1016.80
2019-04-11T02:49:43.461Z,1016.82
2019-04-11T02:50:43.548Z,1016.82
2019-04-11T02:51:44.964Z,1016.86
2019-04-11T02:52:47.197Z,1016.83
2019-04-11T02:53:47.459Z,1016.84
2019-04-11T02:54:49.342Z,1016.85
2019-04-11T02:55:51.849Z,1016.83
2019-04-11T02:56:52.902Z,1016.85
2019-04-11T02:57:54.173Z,1016.82
2019-04-11T02:58:54.560Z,1016.87
2019-04-11T02:59:56.043Z,1016.94
2019-04-11T03:01:00.294Z,1016.86
2019-04-11T03:01:58.275Z,1016.88
2019-04-11T03:03:01.161Z,1016.88
2019-04-11T03:04:01.901Z,1016.86
2019-04-11T03:05:02.897Z,1016.86
2019-04-11T03:06:04.456Z,1016.87
2019-04-11T03:07:05.912Z,1016.89
2019-04-11T03:08:10.617Z,1016.89
2019-04-11T03:09:07.815Z,1016.81
2019-04-11T03:10:09.905Z,1016.86
2019-04-11T03:11:10.832Z,1016.86
2019-04-11T03:12:13.259Z,1016.87
2019-04-11T03:13:13.237Z,1016.88
2019-04-11T03:14:16.282Z,1016.87
2019-04-11T03:15:32.080Z,1016.93
2019-04-11T03:16:28.133Z,1016.96
2019-04-11T03:17:23.080Z,1016.95
2019-04-11T03:18:42.448Z,1016.95
2019-04-11T03:19:35.737Z,1016.95
2019-04-11T03:20:31.709Z,1016.90
2019-04-11T03:21:24.459Z,1016.96
2019-04-11T03:22:26.557Z,1016.95
2019-04-11T03:23:27.860Z,1016.98
2019-04-11T03:24:29.498Z,1016.97
2019-04-11T03:25:30.500Z,1016.95
2019-04-11T03:26:31.074Z,1016.96
2019-04-11T03:27:32.595Z,1016.95
2019-04-11T03:28:34.013Z,1016.93
2019-04-11T03:29:36.168Z,1016.97
2019-04-11T03:30:54.063Z,1016.94
2019-04-11T03:34:24.893Z,1016.93
2019-04-11T03:37:24.061Z,1016.96
2019-04-11T03:38:05.820Z,1016.97
2019-04-11T03:39:11.358Z,1017.02
2019-04-11T03:40:06.029Z,1017.04
2019-04-11T03:41:12.526Z,1017.04
2019-04-11T03:42:09.539Z,1017.07
2019-04-11T03:43:06.347Z,1017.06
2019-04-11T03:44:04.315Z,1017.06
2019-04-11T03:45:15.304Z,1017.09
2019-04-11T03:46:16.378Z,1017.09
2019-04-11T03:47:10.126Z,1017.09
2019-04-11T03:48:12.469Z,1017.11
2019-04-11T03:49:15.869Z,1017.04
2019-04-11T03:50:08.365Z,1017.14
2019-04-11T03:51:04.771Z,1017.10
2019-04-11T03:52:08.129Z,1017.07
2019-04-11T03:53:09.379Z,1017.10
2019-04-11T03:54:09.630Z,1017.14
2019-04-11T03:55:11.086Z,1017.16
2019-04-11T03:56:12.155Z,1017.14
2019-04-11T03:57:13.384Z,1017.15
2019-04-11T03:58:15.487Z,1017.16
2019-04-11T03:59:16.604Z,1017.14
2019-04-11T04:00:16.675Z,1017.21
2019-04-11T04:01:18.405Z,1017.16
2019-04-11T04:02:20.251Z,1017.18
2019-04-11T04:03:22.295Z,1017.17
2019-04-11T04:04:23.399Z,1017.17
2019-04-11T04:05:23.818Z,1017.19
2019-04-11T04:06:25.577Z,1017.21
2019-04-11T04:07:27.661Z,1017.16
2019-04-11T04:08:28.824Z,1017.17
2019-04-11T04:09:29.358Z,1017.18
2019-04-11T04:10:30.015Z,1017.17
2019-04-11T04:11:32.608Z,1017.20
2019-04-11T04:12:33.635Z,1017.20
2019-04-11T04:13:34.539Z,1017.22
2019-04-11T04:14:36.953Z,1017.19
2019-04-11T04:15:51.613Z,1017.24
2019-04-11T04:16:43.211Z,1017.26
2019-04-11T04:17:41.162Z,1017.21
2019-04-11T04:18:40.865Z,1017.26
2019-04-11T04:19:43.698Z,1017.25
2019-04-11T04:20:43.909Z,1017.28
2019-04-11T04:21:44.945Z,1017.27
2019-04-11T04:22:48.089Z,1017.31
2019-04-11T04:23:49.466Z,1017.29
2019-04-11T04:24:49.687Z,1017.33
2019-04-11T04:25:51.509Z,1017.32
2019-04-11T04:26:52.635Z,1017.37
2019-04-11T04:27:54.571Z,1017.37
2019-04-11T04:28:55.392Z,1017.39
2019-04-11T04:29:57.741Z,1017.44
2019-04-11T04:30:57.936Z,1017.42
2019-04-11T04:31:59.546Z,1017.43
2019-04-11T04:33:00.582Z,1017.45
2019-04-11T04:34:01.961Z,1017.49
2019-04-11T04:35:02.766Z,1017.48
2019-04-11T04:36:06.603Z,1017.47
2019-04-11T04:37:05.864Z,1017.46
2019-04-11T04:38:07.422Z,1017.51
2019-04-11T04:39:08.686Z,1017.50
2019-04-11T04:40:24.109Z,1017.51
2019-04-11T04:41:21.098Z,1017.55
2019-04-11T04:42:23.479Z,1017.55
2019-04-11T04:43:14.460Z,1017.51
2019-04-11T04:44:14.664Z,1017.52
2019-04-11T04:45:16.358Z,1017.54
2019-04-11T04:46:30.807Z,1017.57
2019-04-11T04:47:24.994Z,1017.58
2019-04-11T04:48:23.076Z,1017.55
2019-04-11T04:49:21.487Z,1017.53
2019-04-11T04:50:24.340Z,1017.55
2019-04-11T04:51:24.516Z,1017.54
2019-04-11T04:52:27.232Z,1017.58
2019-04-11T04:53:28.254Z,1017.62
2019-04-11T04:54:28.374Z,1017.63
2019-04-11T04:55:30.326Z,1017.62
2019-04-11T04:56:32.254Z,1017.66
2019-04-11T04:57:35.086Z,1017.71
2019-04-11T04:58:33.937Z,1017.69
2019-04-11T04:59:37.416Z,1017.71
2019-04-11T05:00:37.493Z,1017.71
2019-04-11T05:01:39.157Z,1017.71
2019-04-11T05:02:39.744Z,1017.73
2019-04-11T05:03:40.873Z,1017.79
2019-04-11T05:04:43.447Z,1017.78
2019-04-11T05:05:44.289Z,1017.75
2019-04-11T05:06:46.769Z,1017.79
2019-04-11T05:07:46.861Z,1017.82
2019-04-11T05:08:47.291Z,1017.83
2019-04-11T05:09:50.131Z,1017.85
2019-04-11T05:10:51.344Z,1017.84
2019-04-11T05:11:52.856Z,1017.83
2019-04-11T05:12:52.545Z,1017.87
2019-04-11T05:13:54.499Z,1017.88
2019-04-11T05:14:56.023Z,1017.90
2019-04-11T05:16:06.846Z,1017.89
2019-04-11T05:16:58.102Z,1017.87
2019-04-11T05:17:59.895Z,1017.92
2019-04-11T05:19:00.882Z,1017.95
2019-04-11T05:20:02.887Z,1017.94
2019-04-11T05:21:03.399Z,1017.97
2019-04-11T05:22:04.793Z,1017.99
2019-04-11T05:23:06.368Z,1017.97
2019-04-11T05:24:07.534Z,1018.00
2019-04-11T05:25:08.923Z,1018.02
2019-04-11T05:26:10.946Z,1017.99
2019-04-11T05:27:12.560Z,1017.98
2019-04-11T05:28:13.968Z,1017.99
2019-04-11T05:29:15.211Z,1018.01
2019-04-11T05:30:16.731Z,1018.02
2019-04-11T05:31:17.055Z,1018.04
2019-04-11T05:32:19.677Z,1018.01
2019-04-11T05:33:19.869Z,1018.04
2019-04-11T05:34:21.236Z,1018.02
2019-04-11T05:35:22.788Z,1018.04
2019-04-11T05:36:24.717Z,1018.03
2019-04-11T05:37:25.335Z,1018.02
2019-04-11T05:38:27.307Z,1018.04
2019-04-11T05:39:28.066Z,1018.08
2019-04-11T05:40:30.901Z,1018.10
2019-04-11T05:41:31.356Z,1018.10
2019-04-11T05:42:33.299Z,1018.06
2019-04-11T05:43:37.371Z,1018.09
2019-04-11T05:44:37.590Z,1018.09
2019-04-11T05:45:36.304Z,1018.13
2019-04-11T05:46:49.102Z,1018.10
2019-04-11T05:47:39.296Z,1018.06
2019-04-11T05:48:41.026Z,1018.02
2019-04-11T05:49:42.449Z,1018.00
2019-04-11T05:50:46.312Z,1018.01
2019-04-11T05:51:47.434Z,1018.04
2019-04-11T05:52:46.506Z,1018.07
2019-04-11T05:53:49.885Z,1018.15
2019-04-11T05:54:49.730Z,1018.12
2019-04-11T05:55:50.994Z,1018.61
2019-04-11T05:56:55.025Z,1018.72
2019-04-11T05:57:54.395Z,1018.35
2019-04-11T05:58:55.588Z,1019.06
2019-04-11T05:59:56.543Z,1018.58
2019-04-11T06:00:58.287Z,1018.30
2019-04-11T06:02:01.660Z,1018.30
2019-04-11T06:03:00.068Z,1018.36
2019-04-11T06:04:01.992Z,1018.35
2019-04-11T06:05:02.968Z,1018.32
2019-04-11T06:06:04.787Z,1018.32
2019-04-11T06:07:07.849Z,1018.34
2019-04-11T06:08:06.885Z,1018.34
2019-04-11T06:09:10.138Z,1018.35
2019-04-11T06:10:11.374Z,1018.36
2019-04-11T06:11:14.431Z,1018.40
2019-04-11T06:12:13.579Z,1018.40
2019-04-11T06:13:13.674Z,1018.44
2019-04-11T06:14:15.218Z,1018.44
2019-04-11T06:15:16.664Z,1018.42
2019-04-11T06:16:18.802Z,1018.44
2019-04-11T06:17:19.128Z,1018.47
2019-04-11T06:18:27.079Z,1018.42
2019-04-11T06:19:22.830Z,1018.42
2019-04-11T06:20:25.111Z,1018.38
2019-04-11T06:21:24.596Z,1018.37
2019-04-11T06:22:25.989Z,1018.40
2019-04-11T06:23:27.528Z,1018.47
2019-04-11T06:24:28.932Z,1018.42
2019-04-11T06:25:30.940Z,1018.44
2019-04-11T06:26:32.407Z,1018.48
2019-04-11T06:27:34.149Z,1018.47
2019-04-11T06:28:34.337Z,1018.48
2019-04-11T06:29:36.879Z,1018.53
2019-04-11T06:30:37.070Z,1018.56
2019-04-11T06:31:38.461Z,1018.56
2019-04-11T06:32:40.286Z,1018.55
2019-04-11T06:33:41.215Z,1018.53
2019-04-11T06:34:43.776Z,1018.53
2019-04-11T06:35:44.169Z,1018.59
2019-04-11T06:36:46.572Z,1018.65
2019-04-11T06:37:46.706Z,1018.65
2019-04-11T06:38:49.294Z,1018.67
2019-04-11T06:39:49.487Z,1018.73
2019-04-11T06:40:51.123Z,1018.68
2019-04-11T06:41:52.134Z,1018.70
2019-04-11T06:42:53.859Z,1018.64
2019-04-11T06:43:56.350Z,1018.71
2019-04-11T06:44:56.841Z,1018.67
2019-04-11T06:45:58.832Z,1018.67
2019-04-11T06:47:01.128Z,1018.72
2019-04-11T06:48:01.591Z,1018.75
2019-04-11T06:49:02.979Z,1018.72
2019-04-11T06:50:04.372Z,1018.70
2019-04-11T06:51:06.010Z,1018.73
2019-04-11T06:52:07.117Z,1018.81
2019-04-11T06:53:08.940Z,1018.81
2019-04-11T06:54:09.863Z,1018.75
2019-04-11T06:55:11.253Z,1018.75
2019-04-11T06:56:12.644Z,1018.82
2019-04-11T06:57:14.045Z,1018.75
2019-04-11T06:58:15.441Z,1018.94
2019-04-11T06:59:16.819Z,1018.88
2019-04-11T07:00:18.214Z,1018.75
2019-04-11T07:01:20.233Z,1018.75
2019-04-11T07:02:23.308Z,1018.74
2019-04-11T07:03:25.479Z,1018.71
2019-04-11T07:04:23.678Z,1018.66
2019-04-11T07:05:25.072Z,1018.67
2019-04-11T07:06:27.202Z,1018.61
2019-04-11T07:07:28.976Z,1018.63
2019-04-11T07:08:30.018Z,1018.66
2019-04-11T07:09:30.968Z,1018.64
2019-04-11T07:10:31.883Z,1018.63
2019-04-11T07:11:34.128Z,1018.69
2019-04-11T07:12:34.955Z,1018.65
2019-04-11T07:13:37.068Z,1018.61
2019-04-11T07:14:37.571Z,1018.63
2019-04-11T07:15:39.780Z,1018.63
2019-04-11T07:16:40.413Z,1018.65
2019-04-11T07:17:41.405Z,1018.65
2019-04-11T07:18:42.797Z,1018.66
2019-04-11T07:19:44.488Z,1018.64
2019-04-11T07:20:45.763Z,1018.59
2019-04-11T07:21:46.881Z,1018.55
2019-04-11T07:22:48.820Z,1018.60
2019-04-11T07:23:49.627Z,1018.64
2019-04-11T07:24:51.022Z,1018.70
2019-04-11T07:25:52.413Z,1018.70
2019-04-11T07:26:54.351Z,1018.71
2019-04-11T07:27:55.159Z,1018.75
2019-04-11T07:28:56.596Z,1018.76
2019-04-11T07:29:58.493Z,1018.74
2019-04-11T07:31:00.307Z,1018.74
2019-04-11T07:32:00.895Z,1018.76
2019-04-11T07:33:02.191Z,1018.76
2019-04-11T07:34:03.358Z,1018.84
2019-04-11T07:35:04.958Z,1018.82
2019-04-11T07:36:06.086Z,1018.86
2019-04-11T07:37:07.481Z,1018.85
2019-04-11T07:38:09.780Z,1018.83
2019-04-11T07:39:10.216Z,1018.83
2019-04-11T07:40:12.990Z,1018.85
2019-04-11T07:41:13.003Z,1018.92
2019-04-11T07:42:15.728Z,1018.94
2019-04-11T07:43:17.122Z,1018.94
2019-04-11T07:44:17.579Z,1018.93
2019-04-11T07:45:18.442Z,1018.97
2019-04-11T07:46:19.893Z,1018.92
2019-04-11T07:47:24.581Z,1018.93
2019-04-11T07:48:22.543Z,1018.96
2019-04-11T07:49:24.432Z,1018.97
2019-04-11T07:50:26.135Z,1019.02
2019-04-11T07:51:27.539Z,1018.99
2019-04-11T07:52:30.165Z,1019.03
2019-04-11T07:53:30.463Z,1019.05
2019-04-11T07:54:30.697Z,1019.14
2019-04-11T07:55:32.257Z,1019.13
2019-04-11T07:56:33.446Z,1019.13
2019-04-11T07:57:34.840Z,1019.15
2019-04-11T07:58:37.334Z,1019.09
2019-04-11T07:59:37.708Z,1019.12
2019-04-11T08:00:44.086Z,1019.16
2019-04-11T08:01:40.389Z,1019.15
2019-04-11T08:02:41.680Z,1019.14
2019-04-11T08:03:43.064Z,1019.18
2019-04-11T08:04:45.126Z,1019.19
2019-04-11T08:05:46.672Z,1019.18
2019-04-11T08:06:47.884Z,1019.22
2019-04-11T08:07:49.081Z,1019.22
2019-04-11T08:08:49.862Z,1019.20
2019-04-11T08:09:51.253Z,1019.21
2019-04-11T08:10:52.679Z,1019.20
2019-04-11T08:11:54.062Z,1019.21
2019-04-11T08:12:56.154Z,1019.20
2019-04-11T08:13:56.796Z,1019.18
2019-04-11T08:14:59.262Z,1019.19
2019-04-11T08:15:59.550Z,1019.27
2019-04-11T08:17:01.560Z,1019.33
2019-04-11T08:18:02.298Z,1019.41
2019-04-11T08:19:03.706Z,1019.56
2019-04-11T08:20:05.103Z,1019.73
2019-04-11T08:21:06.462Z,1019.79
2019-04-11T08:22:08.407Z,1019.73
2019-04-11T08:23:09.717Z,1019.72
2019-04-11T08:24:10.547Z,1019.81
2019-04-11T08:25:11.945Z,1020.01
2019-04-11T08:26:13.674Z,1020.10
2019-04-11T08:27:15.509Z,1020.35
2019-04-11T08:28:16.428Z,1020.44
2019-04-11T08:29:18.003Z,1021.26
2019-04-11T08:30:19.040Z,1021.89
2019-04-11T08:31:20.134Z,1021.68
2019-04-11T08:32:22.038Z,1021.42
2019-04-11T08:33:22.881Z,1021.31
2019-04-11T08:34:24.284Z,1021.33
2019-04-11T08:35:26.253Z,1021.25
2019-04-11T08:36:27.035Z,1021.29
2019-04-11T08:37:29.599Z,1021.03
2019-04-11T08:38:29.801Z,1020.66
2019-04-11T08:39:31.280Z,1020.45
2019-04-11T08:40:33.626Z,1020.01
2019-04-11T08:41:34.002Z,1019.65
2019-04-11T08:42:37.286Z,1019.46
2019-04-11T08:43:37.453Z,1019.36
2019-04-11T08:44:38.187Z,1019.32
2019-04-11T08:45:40.282Z,1019.28
2019-04-11T08:46:40.941Z,1019.26
2019-04-11T08:47:47.607Z,1019.31
2019-04-11T08:48:44.112Z,1019.22
2019-04-11T08:49:45.842Z,1019.20
2019-04-11T08:50:46.988Z,1019.19
2019-04-11T08:51:47.790Z,1019.30
2019-04-11T08:52:49.180Z,1019.34
2019-04-11T08:53:51.120Z,1019.42
2019-04-11T08:54:51.950Z,1019.44
2019-04-11T08:55:56.239Z,1019.46
2019-04-11T08:56:55.725Z,1019.48
2019-04-11T08:57:56.118Z,1019.66
2019-04-11T08:58:57.405Z,1019.89
2019-04-11T08:59:59.941Z,1020.15
2019-04-11T09:01:00.669Z,1020.58
2019-04-11T09:02:02.685Z,1020.73
2019-04-11T09:03:02.918Z,1020.99
2019-04-11T09:04:07.401Z,1020.86
2019-04-11T09:05:12.054Z,1022.26
2019-04-11T09:06:08.306Z,1022.24
2019-04-11T09:07:10.184Z,1022.03
2019-04-11T09:08:09.995Z,1023.27
2019-04-11T09:09:11.241Z,1022.17
2019-04-11T09:10:12.627Z,1022.14
2019-04-11T09:11:14.829Z,1021.87
2019-04-11T09:12:15.353Z,1022.76
2019-04-11T09:13:17.309Z,1022.91
2019-04-11T09:14:18.113Z,1023.88
2019-04-11T09:15:19.525Z,1023.55
2019-04-11T09:16:21.587Z,1023.97
2019-04-11T09:17:23.249Z,1020.63
2019-04-11T09:18:23.888Z,1020.27
2019-04-11T09:19:25.106Z,1024.56
2019-04-11T09:20:27.546Z,1021.26
2019-04-11T09:21:28.533Z,1025.79
2019-04-11T09:22:29.180Z,1025.90
2019-04-11T09:23:30.529Z,1025.14
2019-04-11T09:24:32.542Z,1029.35
2019-04-11T09:25:33.304Z,1021.45
2019-04-11T09:26:34.701Z,1019.81
2019-04-11T09:27:36.504Z,1019.60
2019-04-11T09:28:37.710Z,1019.52
2019-04-11T09:29:39.873Z,1019.63
2019-04-11T09:30:41.091Z,1019.55
2019-04-11T09:31:41.958Z,1019.55
2019-04-11T09:32:42.959Z,1019.45
2019-04-11T09:33:44.923Z,1019.39
2019-04-11T09:34:46.048Z,1019.23
2019-04-11T09:35:47.154Z,1019.33
2019-04-11T09:36:49.244Z,1019.43
2019-04-11T09:37:49.804Z,1019.45
2019-04-11T09:38:51.194Z,1019.53
2019-04-11T09:39:53.106Z,1019.48
2019-04-11T09:40:54.224Z,1019.32
2019-04-11T09:41:56.540Z,1019.30
2019-04-11T09:42:57.583Z,1019.33
2019-04-11T09:43:58.123Z,1019.40
2019-04-11T09:44:59.470Z,1019.40
2019-04-11T09:46:01.818Z,1019.45
2019-04-11T09:47:03.328Z,1019.43
2019-04-11T09:48:12.609Z,1019.40
2019-04-11T09:49:04.890Z,1019.31
2019-04-11T09:50:06.289Z,1019.26
2019-04-11T09:51:07.679Z,1019.28
2019-04-11T09:52:09.111Z,1019.26
2019-04-11T09:53:10.510Z,1019.22
2019-04-11T09:54:12.074Z,1019.14
2019-04-11T09:55:13.326Z,1019.06
2019-04-11T09:56:15.182Z,1018.95
2019-04-11T09:57:16.404Z,1018.90
2019-04-11T09:58:17.558Z,1018.94
2019-04-11T09:59:18.954Z,1019.04
2019-04-11T10:00:20.700Z,1018.98
2019-04-11T10:01:21.713Z,1018.99
2019-04-11T10:02:23.344Z,1019.02
2019-04-11T10:03:25.560Z,1019.04
2019-04-11T10:04:25.833Z,1019.01
2019-04-11T10:05:27.235Z,1019.07
2019-04-11T10:06:28.626Z,1019.10
2019-04-11T10:07:30.116Z,1019.20
2019-04-11T10:08:31.372Z,1019.20
2019-04-11T10:09:32.778Z,1019.11
2019-04-11T10:10:35.260Z,1019.06
2019-04-11T10:11:35.535Z,1019.02
2019-04-11T10:12:38.198Z,1019.03
2019-04-11T10:13:38.299Z,1019.04
2019-04-11T10:14:39.806Z,1019.03
2019-04-11T10:15:41.044Z,1019.07
2019-04-11T10:16:42.451Z,1019.15
2019-04-11T10:17:43.857Z,1019.11
2019-04-11T10:18:45.258Z,1019.08
2019-04-11T10:19:46.643Z,1019.09
2019-04-11T10:20:48.692Z,1019.11
2019-04-11T10:21:49.959Z,1019.11
2019-04-11T10:22:50.745Z,1019.02
2019-04-11T10:23:53.289Z,1019.02
2019-04-11T10:24:54.544Z,1019.04
2019-04-11T10:25:55.925Z,1019.07
2019-04-11T10:26:56.322Z,1019.09
2019-04-11T10:27:57.560Z,1019.14
2019-04-11T10:29:00.166Z,1019.29
2019-04-11T10:30:00.879Z,1019.33
2019-04-11T10:31:02.133Z,1019.34
2019-04-11T10:32:03.283Z,1019.22
2019-04-11T10:33:04.536Z,1019.14
2019-04-11T10:34:06.112Z,1019.12
2019-04-11T10:35:08.188Z,1019.06
2019-04-11T10:36:08.435Z,1019.09
2019-04-11T10:37:09.840Z,1019.25
2019-04-11T10:38:11.944Z,1019.49
2019-04-11T10:39:13.208Z,1019.75
2019-04-11T10:40:13.946Z,1019.90
2019-04-11T10:41:15.339Z,1019.99
2019-04-11T10:42:18.017Z,1019.99
2019-04-11T10:43:18.258Z,1019.86
2019-04-11T10:44:19.445Z,1019.76
2019-04-11T10:45:20.851Z,1019.75
2019-04-11T10:46:22.940Z,1019.58
2019-04-11T10:47:24.921Z,1019.17
2019-04-11T10:48:35.590Z,1019.10
2019-04-11T10:49:26.357Z,1019.03
2019-04-11T10:50:28.383Z,1019.05
2019-04-11T10:51:29.569Z,1019.08
2019-04-11T10:52:30.831Z,1019.02
2019-04-11T10:53:31.812Z,1018.91
2019-04-11T10:54:33.200Z,1018.83
2019-04-11T10:55:35.699Z,1018.89
2019-04-11T10:56:35.946Z,1018.76
2019-04-11T10:57:38.257Z,1018.86
2019-04-11T10:58:38.689Z,1018.88
2019-04-11T10:59:40.703Z,1018.95
2019-04-11T11:00:41.440Z,1018.95
2019-04-11T11:01:42.832Z,1019.01
2019-04-11T11:02:45.290Z,1018.94
2019-04-11T11:03:45.597Z,1018.91
2019-04-11T11:04:46.988Z,1018.92
2019-04-11T11:05:49.303Z,1018.87
2019-04-11T11:06:49.730Z,1018.92
2019-04-11T11:07:51.133Z,1018.88
2019-04-11T11:08:53.400Z,1018.97
2019-04-11T11:09:54.569Z,1018.96
2019-04-11T11:10:55.570Z,1019.03
2019-04-11T11:11:56.804Z,1019.04
2019-04-11T11:12:59.186Z,1019.08
2019-04-11T11:14:00.405Z,1019.08
2019-04-11T11:15:00.947Z,1019.10
2019-04-11T11:16:02.327Z,1019.19
2019-04-11T11:17:04.450Z,1019.14
2019-04-11T11:18:34.954Z,1019.14
2019-04-11T11:19:32.220Z,1019.08
2019-04-11T11:20:16.389Z,1019.09
2019-04-11T11:21:09.453Z,1019.05
2019-04-11T11:22:10.679Z,1019.06
2019-04-11T11:23:13.051Z,1019.08
2019-04-11T11:24:13.444Z,1019.11
2019-04-11T11:25:16.759Z,1019.09
2019-04-11T11:26:19.872Z,1019.07
2019-04-11T11:27:18.112Z,1019.07
2019-04-11T11:28:18.909Z,1019.04
2019-04-11T11:29:21.189Z,1019.11
2019-04-11T11:30:23.082Z,1019.10
2019-04-11T11:31:24.427Z,1019.05
2019-04-11T11:32:25.365Z,1019.11
2019-04-11T11:33:26.655Z,1019.16
2019-04-11T11:34:28.430Z,1019.16
2019-04-11T11:35:32.343Z,1019.20
2019-04-11T11:36:34.956Z,1019.25
2019-04-11T11:37:33.253Z,1019.26
2019-04-11T11:38:33.666Z,1019.27
2019-04-11T11:39:35.259Z,1019.29
2019-04-11T11:40:38.523Z,1019.30
2019-04-11T11:41:38.545Z,1019.30
2019-04-11T11:42:38.879Z,1019.34
2019-04-11T11:43:41.261Z,1019.32
2019-04-11T11:44:41.641Z,1019.36
2019-04-11T11:45:47.940Z,1019.33
2019-04-11T11:46:44.634Z,1019.37
2019-04-11T11:47:45.961Z,1019.35
2019-04-11T11:48:49.977Z,1019.41
2019-04-11T11:49:56.524Z,1019.39
2019-04-11T11:50:51.365Z,1019.42
2019-04-11T11:51:51.862Z,1019.45
2019-04-11T11:52:53.135Z,1019.45
2019-04-11T11:53:53.896Z,1019.34
2019-04-11T11:54:55.720Z,1019.34
2019-04-11T11:55:57.836Z,1019.38
2019-04-11T11:56:58.226Z,1019.36
2019-04-11T11:58:00.465Z,1019.33
2019-04-11T11:59:01.095Z,1019.30
2019-04-11T12:00:02.885Z,1019.22
2019-04-11T12:01:05.875Z,1019.17
2019-04-11T12:02:04.797Z,1019.19
2019-04-11T12:03:06.182Z,1019.26
2019-04-11T12:04:08.584Z,1019.17
2019-04-11T12:05:12.542Z,1019.16
2019-04-11T12:06:10.305Z,1019.10
2019-04-11T12:07:12.610Z,1019.02
2019-04-11T12:08:16.131Z,1019.04
2019-04-11T12:09:14.428Z,1018.97
2019-04-11T12:10:15.831Z,1018.96
2019-04-11T12:11:17.819Z,1018.95
2019-04-11T12:12:19.738Z,1018.94
2019-04-11T12:13:19.927Z,1018.96
2019-04-11T12:14:22.158Z,1018.93
2019-04-11T12:15:25.291Z,1018.96
2019-04-11T12:16:24.028Z,1018.98
2019-04-11T12:17:25.427Z,1018.97
2019-04-11T12:18:26.856Z,1018.94
2019-04-11T12:19:28.893Z,1019.01
2019-04-11T12:20:29.582Z,1019.03
2019-04-11T12:21:31.458Z,1019.02
2019-04-11T12:22:32.733Z,1019.01
2019-04-11T12:23:44.779Z,1019.02
2019-04-11T12:24:36.396Z,1019.04
2019-04-11T12:25:36.979Z,1019.06
2019-04-11T12:26:37.877Z,1019.06